Time;durP1;ratioP1;P1;durP2;ratioP2;P2;SDS_P1;SDS_P2;PMS_P1;PMS_P2;Temp;Humidity;BMP_temperature;BMP_pressure;BME280_temperature;BME280_humidity;BME280_pressure;Samples;Min_cycle;Max_cycle;Signal;HPM_P1;HPM_P2
2022/04/15 00:00:41;;;;;;;13.70;8.85;;;;;;;;;;4934156;29;20043;-64
2022/04/15 00:03:07;;;;;;;9.82;7.47;;;;;;;;;;4934338;29;20028;-72
2022/04/15 00:05:37;;;;;;;11.18;7.57;;;;;;;;;;4934448;29;20083;-64
2022/04/15 00:08:06;;;;;;;11.52;8.13;;;;;;;;;;4933933;29;20031;-70
2022/04/15 00:10:33;;;;;;;11.15;6.72;;;;;;;;;;4931782;29;20044;-63
2022/04/15 00:13:00;;;;;;;12.05;8.10;;;;;;;;;;4934503;29;20063;-64
2022/04/15 00:15:27;;;;;;;10.65;8.02;;;;;;;;;;4934287;29;20124;-65
2022/04/15 00:17:54;;;;;;;10.32;8.73;;;;;;;;;;4934912;29;20031;-63
2022/04/15 00:20:21;;;;;;;12.48;8.18;;;;;;;;;;4937803;29;20050;-63
2022/04/15 00:22:47;;;;;;;13.75;8.40;;;;;;;;;;4938121;29;20086;-67
2022/04/15 00:25:13;;;;;;;10.50;8.35;;;;;;;;;;4938355;29;20040;-72
2022/04/15 00:27:40;;;;;;;14.20;8.48;;;;;;;;;;4938043;29;20035;-69
2022/04/15 00:30:08;;;;;;;13.55;9.07;;;;;;;;;;4937643;29;20032;-70
2022/04/15 00:32:34;;;;;;;10.23;7.90;;;;;;;;;;4937664;29;20103;-71
2022/04/15 00:35:00;;;;;;;10.13;8.68;;;;;;;;;;4937984;29;20063;-66
2022/04/15 00:37:27;;;;;;;11.77;8.63;;;;;;;;;;4937863;29;20479;-69
2022/04/15 00:39:53;;;;;;;12.70;9.25;;;;;;;;;;4936923;29;20035;-67
2022/04/15 00:42:22;;;;;;;12.32;9.40;;;;;;;;;;4938149;29;20039;-67
2022/04/15 00:44:52;;;;;;;12.57;9.07;;;;;;;;;;4938174;29;20099;-68
2022/04/15 00:47:35;;;;;;;13.70;9.35;;;;;;;;;;4938133;29;20042;-69
2022/04/15 00:50:02;;;;;;;12.43;8.73;;;;;;;;;;4937821;29;20402;-69
2022/04/15 00:52:35;;;;;;;12.30;9.77;;;;;;;;;;4936874;29;20114;-72
2022/04/15 00:55:02;;;;;;;;;;;;;;;;;;4938233;29;20071;-63
2022/04/15 00:57:30;;;;;;;15.45;9.40;;;;;;;;;;4937614;29;20290;-74
2022/04/15 00:59:58;;;;;;;11.27;9.48;;;;;;;;;;4937685;29;20489;-69
2022/04/15 01:02:25;;;;;;;12.35;9.05;;;;;;;;;;4937676;29;20028;-66
2022/04/15 01:04:55;;;;;;;14.95;9.95;;;;;;;;;;4937789;29;20042;-73
2022/04/15 01:07:26;;;;;;;13.88;10.18;;;;;;;;;;4937778;29;20039;-70
2022/04/15 01:09:52;;;;;;;16.35;9.35;;;;;;;;;;4937583;29;20110;-71
2022/04/15 01:12:21;;;;;;;9.80;8.77;;;;;;;;;;4937665;29;20547;-70
2022/04/15 01:14:48;;;;;;;12.52;9.23;;;;;;;;;;4937408;29;20491;-64
2022/04/15 01:17:14;;;;;;;13.23;9.68;;;;;;;;;;4937548;29;20087;-62
2022/04/15 01:19:40;;;;;;;12.38;8.65;;;;;;;;;;4937217;29;20395;-63
2022/04/15 01:22:14;;;;;;;13.38;10.25;;;;;;;;;;4937590;29;20027;-63
2022/04/15 01:24:40;;;;;;;12.63;9.82;;;;;;;;;;4937276;29;20028;-64
2022/04/15 01:27:07;;;;;;;16.52;11.02;;;;;;;;;;4937019;29;20419;-65
2022/04/15 01:29:39;;;;;;;13.02;9.63;;;;;;;;;;4936281;29;20130;-64
2022/04/15 01:32:07;;;;;;;13.70;11.00;;;;;;;;;;4937508;29;20360;-64
2022/04/15 01:34:36;;;;;;;16.52;10.77;;;;;;;;;;4937346;29;20629;-63
2022/04/15 01:37:03;;;;;;;14.32;9.80;;;;;;;;;;4936605;29;20036;-63
2022/04/15 01:39:31;;;;;;;15.65;10.25;;;;;;;;;;4937281;29;20024;-64
2022/04/15 01:41:57;;;;;;;12.50;9.32;;;;;;;;;;4937297;29;20524;-66
2022/04/15 01:44:23;;;;;;;13.95;9.68;;;;;;;;;;4937270;29;20028;-63
2022/04/15 01:46:49;;;;;;;13.45;9.32;;;;;;;;;;4936817;29;20050;-66
2022/04/15 01:49:15;;;;;;;14.15;9.95;;;;;;;;;;4936812;29;20110;-62
2022/04/15 01:51:41;;;;;;;15.88;10.15;;;;;;;;;;4936445;29;20044;-70
2022/04/15 01:54:07;;;;;;;16.85;10.60;;;;;;;;;;4937130;29;20132;-63
2022/04/15 01:56:33;;;;;;;16.63;10.23;;;;;;;;;;4937086;29;20031;-63
2022/04/15 01:58:58;;;;;;;15.45;10.50;;;;;;;;;;4936337;29;20047;-63
2022/04/15 02:01:24;;;;;;;19.73;10.48;;;;;;;;;;4936464;29;20036;-62
2022/04/15 02:03:50;;;;;;;17.77;12.23;;;;;;;;;;4936640;29;20441;-67
2022/04/15 02:06:16;;;;;;;20.02;12.63;;;;;;;;;;4936442;29;20062;-63
2022/04/15 02:08:42;;;;;;;18.27;11.07;;;;;;;;;;4936549;29;20027;-68
2022/04/15 02:11:08;;;;;;;12.80;10.50;;;;;;;;;;4944752;29;20036;-63
2022/04/15 02:13:34;;;;;;;18.58;11.50;;;;;;;;;;4936654;29;20027;-64
2022/04/15 02:15:59;;;;;;;14.75;10.45;;;;;;;;;;4936402;29;20372;-62
2022/04/15 02:18:26;;;;;;;15.85;11.23;;;;;;;;;;4936562;29;20055;-63
2022/04/15 02:20:55;;;;;;;15.05;10.02;;;;;;;;;;4936857;29;20493;-64
2022/04/15 02:23:20;;;;;;;16.40;10.35;;;;;;;;;;4936668;29;20064;-62
2022/04/15 02:25:46;;;;;;;16.42;10.70;;;;;;;;;;4936431;29;20090;-63
2022/04/15 02:28:12;;;;;;;17.85;11.57;;;;;;;;;;4936240;29;20475;-63
2022/04/15 02:30:38;;;;;;;16.92;11.50;;;;;;;;;;4936692;29;20039;-63
2022/04/15 02:33:04;;;;;;;14.50;10.93;;;;;;;;;;4936063;29;20123;-63
2022/04/15 02:35:29;;;;;;;17.35;11.50;;;;;;;;;;4935551;29;20050;-63
2022/04/15 02:37:55;;;;;;;15.73;10.38;;;;;;;;;;4935481;29;20550;-66
2022/04/15 02:40:21;;;;;;;16.20;11.15;;;;;;;;;;4935537;29;20032;-72
2022/04/15 02:42:47;;;;;;;19.48;10.25;;;;;;;;;;4935941;29;20038;-67
2022/04/15 02:45:13;;;;;;;16.13;10.32;;;;;;;;;;4935865;29;20024;-65
2022/04/15 02:47:40;;;;;;;20.08;11.13;;;;;;;;;;4934776;29;20023;-71
2022/04/15 02:50:07;;;;;;;21.48;10.75;;;;;;;;;;4935648;29;20035;-67
2022/04/15 02:52:34;;;;;;;22.48;12.07;;;;;;;;;;4935730;29;20046;-64
2022/04/15 02:55:00;;;;;;;15.90;11.55;;;;;;;;;;4935560;29;20119;-69
2022/04/15 02:57:26;;;;;;;18.10;10.77;;;;;;;;;;4934327;29;20688;-68
2022/04/15 02:59:52;;;;;;;13.13;10.40;;;;;;;;;;4935007;29;20046;-67
2022/04/15 03:02:17;;;;;;;15.00;9.85;;;;;;;;;;4934606;29;20123;-74
2022/04/15 03:04:43;;;;;;;12.20;9.73;;;;;;;;;;4933882;29;20547;-62
2022/04/15 03:07:09;;;;;;;16.35;9.95;;;;;;;;;;4933388;29;20103;-63
2022/04/15 03:09:35;;;;;;;11.55;9.38;;;;;;;;;;4933852;29;20059;-63
2022/04/15 03:12:00;;;;;;;16.90;9.88;;;;;;;;;;4934441;29;20059;-63
2022/04/15 03:14:26;;;;;;;12.32;9.70;;;;;;;;;;4934109;29;20039;-63
2022/04/15 03:16:52;;;;;;;14.20;9.88;;;;;;;;;;4933805;29;20474;-62
2022/04/15 03:19:18;;;;;;;17.05;10.18;;;;;;;;;;4933622;29;20035;-66
2022/04/15 03:21:44;;;;;;;19.27;12.02;;;;;;;;;;4933698;29;20063;-62
2022/04/15 03:24:10;;;;;;;15.05;12.18;;;;;;;;;;4934685;29;20043;-62
2022/04/15 03:26:36;;;;;;;19.55;12.95;;;;;;;;;;4934610;29;20027;-63
2022/04/15 03:29:01;;;;;;;14.75;11.48;;;;;;;;;;4934763;29;20478;-65
2022/04/15 03:31:27;;;;;;;16.05;12.40;;;;;;;;;;4934611;29;20034;-62
2022/04/15 03:33:53;;;;;;;19.60;14.02;;;;;;;;;;4933902;29;20775;-64
2022/04/15 03:36:19;;;;;;;26.60;14.40;;;;;;;;;;4932259;29;20019;-62
2022/04/15 03:38:45;;;;;;;20.13;14.43;;;;;;;;;;4934139;29;20043;-64
2022/04/15 03:41:10;;;;;;;22.70;14.40;;;;;;;;;;4933739;29;20023;-64
2022/04/15 03:43:36;;;;;;;21.80;13.38;;;;;;;;;;4933660;29;20119;-63
2022/04/15 03:46:03;;;;;;;15.93;12.90;;;;;;;;;;4934898;29;20082;-63
2022/04/15 03:48:28;;;;;;;20.48;12.70;;;;;;;;;;4934649;29;20028;-63
2022/04/15 03:50:55;;;;;;;15.32;11.68;;;;;;;;;;4933921;29;20055;-63
2022/04/15 03:53:21;;;;;;;18.05;11.55;;;;;;;;;;4934247;29;20032;-65
2022/04/15 03:55:47;;;;;;;17.63;11.90;;;;;;;;;;4933895;29;20023;-63
2022/04/15 03:58:16;;;;;;;18.38;11.82;;;;;;;;;;4934204;29;20035;-64
2022/04/15 04:00:42;;;;;;;17.05;11.73;;;;;;;;;;4932541;29;20031;-69
2022/04/15 04:03:08;;;;;;;18.15;11.55;;;;;;;;;;4933837;29;20581;-68
2022/04/15 04:05:34;;;;;;;21.25;12.57;;;;;;;;;;4932527;29;20071;-72
2022/04/15 04:08:00;;;;;;;17.13;13.27;;;;;;;;;;4933891;29;20103;-63
2022/04/15 04:10:25;;;;;;;18.90;13.00;;;;;;;;;;4933100;29;20115;-65
2022/04/15 04:12:51;;;;;;;22.73;13.60;;;;;;;;;;4933577;29;20039;-68
2022/04/15 04:15:18;;;;;;;27.08;13.50;;;;;;;;;;4933574;29;20039;-64
2022/04/15 04:17:44;;;;;;;17.80;12.27;;;;;;;;;;4935358;29;20048;-61
2022/04/15 04:20:12;;;;;;;23.67;12.63;;;;;;;;;;4932875;29;20077;-70
2022/04/15 04:22:39;;;;;;;17.38;12.35;;;;;;;;;;4932999;29;20172;-65
2022/04/15 04:25:10;;;;;;;19.20;12.63;;;;;;;;;;4933618;29;20042;-65
2022/04/15 04:27:37;;;;;;;19.25;11.77;;;;;;;;;;4934609;29;20443;-65
2022/04/15 04:30:04;;;;;;;21.38;11.32;;;;;;;;;;4933689;29;20042;-65
2022/04/15 04:32:30;;;;;;;26.33;11.45;;;;;;;;;;4932782;29;20114;-66
2022/04/15 04:34:56;;;;;;;18.92;10.95;;;;;;;;;;4934024;29;20127;-65
2022/04/15 04:37:22;;;;;;;16.48;9.93;;;;;;;;;;4929529;29;20036;-65
2022/04/15 04:39:48;;;;;;;18.95;11.05;;;;;;;;;;4926577;29;20083;-73
2022/04/15 04:42:15;;;;;;;27.20;11.13;;;;;;;;;;4932902;29;20044;-72
2022/04/15 04:44:42;;;;;;;17.38;9.50;;;;;;;;;;4931630;29;20784;-69
2022/04/15 04:47:09;;;;;;;17.00;10.07;;;;;;;;;;4932158;28;20498;-67
2022/04/15 04:49:36;;;;;;;15.93;9.40;;;;;;;;;;4933371;29;20038;-76
2022/04/15 04:52:04;;;;;;;19.25;9.38;;;;;;;;;;4932452;29;20060;-66
2022/04/15 04:54:31;;;;;;;14.50;10.77;;;;;;;;;;4933886;29;20071;-72
2022/04/15 04:56:57;;;;;;;58.72;20.60;;;;;;;;;;4934102;29;20118;-72
2022/04/15 04:59:25;;;;;;;26.20;10.65;;;;;;;;;;4933583;29;20024;-74
2022/04/15 05:01:53;;;;;;;22.77;10.10;;;;;;;;;;4934107;29;20126;-69
2022/04/15 05:04:19;;;;;;;14.70;9.00;;;;;;;;;;4932993;29;20063;-70
2022/04/15 05:06:45;;;;;;;12.48;8.70;;;;;;;;;;4936816;29;20067;-75
2022/04/15 05:09:11;;;;;;;18.10;8.57;;;;;;;;;;4938733;29;20495;-65
2022/04/15 05:11:37;;;;;;;11.60;8.00;;;;;;;;;;4937916;29;20039;-76
2022/04/15 05:14:03;;;;;;;18.48;8.98;;;;;;;;;;4936730;29;20042;-71
2022/04/15 05:16:29;;;;;;;12.77;7.90;;;;;;;;;;4937401;29;20039;-72
2022/04/15 05:18:54;;;;;;;12.07;8.15;;;;;;;;;;4938006;29;20031;-73
2022/04/15 05:21:20;;;;;;;14.55;7.30;;;;;;;;;;4936557;29;20046;-69
2022/04/15 05:23:46;;;;;;;16.33;8.43;;;;;;;;;;4936061;29;20052;-69
2022/04/15 05:26:12;;;;;;;13.40;6.80;;;;;;;;;;4937501;29;20401;-71
2022/04/15 05:28:38;;;;;;;16.48;7.50;;;;;;;;;;4937189;29;20024;-67
2022/04/15 05:31:04;;;;;;;10.65;6.25;;;;;;;;;;4936324;29;20439;-71
2022/04/15 05:33:30;;;;;;;18.90;7.18;;;;;;;;;;4937042;29;20020;-74
2022/04/15 05:35:57;;;;;;;14.02;6.43;;;;;;;;;;4936459;29;20046;-67
2022/04/15 05:38:23;;;;;;;10.90;5.93;;;;;;;;;;4937251;29;20057;-70
2022/04/15 05:40:48;;;;;;;10.63;6.03;;;;;;;;;;4936451;29;20046;-71
2022/04/15 05:43:15;;;;;;;13.00;6.53;;;;;;;;;;4936772;29;20028;-71
2022/04/15 05:45:42;;;;;;;23.00;7.63;;;;;;;;;;4936833;29;20024;-70
2022/04/15 05:48:08;;;;;;;14.20;6.22;;;;;;;;;;4936603;29;20103;-67
2022/04/15 05:50:34;;;;;;;12.70;6.82;;;;;;;;;;4935900;29;20048;-69
2022/04/15 05:52:59;;;;;;;15.80;8.50;;;;;;;;;;4936079;29;20076;-68
2022/04/15 05:55:25;;;;;;;18.30;8.57;;;;;;;;;;4937245;29;20043;-70
2022/04/15 05:57:51;;;;;;;16.92;7.07;;;;;;;;;;4936956;29;20027;-77
2022/04/15 06:00:18;;;;;;;23.02;8.88;;;;;;;;;;4936956;29;20031;-72
2022/04/15 06:02:44;;;;;;;15.70;7.00;;;;;;;;;;4936807;29;20063;-75
2022/04/15 06:05:10;;;;;;;17.38;7.80;;;;;;;;;;4937000;29;20114;-75
2022/04/15 06:07:36;;;;;;;17.00;8.07;;;;;;;;;;4924520;29;20035;-75
2022/04/15 06:10:03;;;;;;;18.83;8.18;;;;;;;;;;4935651;29;20035;-68
2022/04/15 06:12:54;;;;;;;11.20;7.95;;;;;;;;;;4935146;29;20027;-78
2022/04/15 06:15:31;;;;;;;15.52;8.95;;;;;;;;;;4936575;29;20118;-78
2022/04/15 06:17:58;;;;;;;10.63;7.93;;;;;;;;;;4921623;29;20393;-74
2022/04/15 06:20:24;;;;;;;19.63;8.63;;;;;;;;;;4936381;29;20047;-77
2022/04/15 06:22:50;;;;;;;15.50;9.65;;;;;;;;;;4936262;29;20055;-74
2022/04/15 06:25:16;;;;;;;16.23;8.82;;;;;;;;;;4935943;29;20135;-80
2022/04/15 06:27:42;;;;;;;18.83;10.05;;;;;;;;;;4934743;29;20035;-72
2022/04/15 06:30:08;;;;;;;20.77;10.82;;;;;;;;;;4935487;29;20115;-77
2022/04/15 06:32:35;;;;;;;13.82;10.35;;;;;;;;;;4936500;29;20087;-82
2022/04/15 06:35:01;;;;;;;24.27;11.82;;;;;;;;;;4936591;29;20530;-73
2022/04/15 06:37:26;;;;;;;20.73;10.85;;;;;;;;;;4935776;29;20071;-68
2022/04/15 06:39:52;;;;;;;19.02;11.63;;;;;;;;;;4935053;29;20081;-75
2022/04/15 06:42:28;;;;;;;20.42;10.77;;;;;;;;;;4931870;29;20126;-78
2022/04/15 06:44:54;;;;;;;21.63;11.00;;;;;;;;;;4933812;29;20039;-71
2022/04/15 06:47:20;;;;;;;20.67;11.20;;;;;;;;;;4933841;29;20031;-67
2022/04/15 06:49:47;;;;;;;20.63;10.82;;;;;;;;;;4933098;29;20044;-69
2022/04/15 06:52:14;;;;;;;14.80;9.82;;;;;;;;;;4933450;29;20439;-71
2022/04/15 06:54:40;;;;;;;21.10;11.57;;;;;;;;;;4932369;29;20058;-68
2022/04/15 06:57:06;;;;;;;17.65;11.18;;;;;;;;;;4934031;29;20550;-77
2022/04/15 06:59:33;;;;;;;18.38;10.02;;;;;;;;;;4930853;29;20035;-74
2022/04/15 07:01:59;;;;;;;20.17;11.07;;;;;;;;;;4933014;29;20037;-67
2022/04/15 07:04:27;;;;;;;28.23;11.32;;;;;;;;;;4932738;29;20036;-70
2022/04/15 07:06:53;;;;;;;17.80;10.35;;;;;;;;;;4924602;29;20028;-73
2022/04/15 07:09:19;;;;;;;16.90;9.82;;;;;;;;;;4916728;29;20040;-71
2022/04/15 07:11:44;;;;;;;15.75;9.55;;;;;;;;;;4927251;29;20043;-70
2022/04/15 07:14:10;;;;;;;13.77;9.48;;;;;;;;;;4933838;29;20039;-72
2022/04/15 07:16:36;;;;;;;17.90;10.02;;;;;;;;;;4934198;29;20027;-71
2022/04/15 07:19:04;;;;;;;19.17;8.82;;;;;;;;;;4932339;29;20034;-72
2022/04/15 07:21:40;;;;;;;16.75;8.07;;;;;;;;;;4934149;29;20032;-69
2022/04/15 07:24:06;;;;;;;15.45;9.52;;;;;;;;;;4934171;29;20032;-70
2022/04/15 07:26:33;;;;;;;13.85;9.35;;;;;;;;;;4933363;29;20039;-71
2022/04/15 07:28:59;;;;;;;19.80;9.38;;;;;;;;;;4933177;29;20075;-69
2022/04/15 07:31:25;;;;;;;17.42;10.18;;;;;;;;;;4932120;29;20498;-68
2022/04/15 07:33:51;;;;;;;20.73;10.55;;;;;;;;;;4915774;29;20043;-71
2022/04/15 07:39:15;;;;;;;18.00;9.65;;;;;;;;;;4932795;29;20055;-69
2022/04/15 07:41:43;;;;;;;20.48;9.65;;;;;;;;;;4932432;29;20115;-69
2022/04/15 07:44:11;;;;;;;15.23;9.18;;;;;;;;;;4932660;29;20549;-71
2022/04/15 07:46:41;;;;;;;15.60;9.15;;;;;;;;;;4932455;29;20055;-73
2022/04/15 07:49:07;;;;;;;16.33;10.15;;;;;;;;;;4931613;29;20045;-74
2022/04/15 07:51:34;;;;;;;23.70;12.63;;;;;;;;;;4932747;29;20101;-71
2022/04/15 07:54:01;;;;;;;19.65;13.10;;;;;;;;;;4933256;29;20031;-70
2022/04/15 07:56:26;;;;;;;19.58;10.15;;;;;;;;;;4933139;29;20035;-69
2022/04/15 07:58:53;;;;;;;21.40;10.20;;;;;;;;;;4934355;29;20139;-78
2022/04/15 08:01:19;;;;;;;15.13;10.32;;;;;;;;;;4934254;29;20028;-71
2022/04/15 08:03:48;;;;;;;20.58;11.13;;;;;;;;;;4932656;29;20044;-70
2022/04/15 08:06:15;;;;;;;15.48;10.10;;;;;;;;;;4933507;29;20036;-73
2022/04/15 08:08:41;;;;;;;22.95;10.88;;;;;;;;;;4933792;29;20078;-72
2022/04/15 08:11:07;;;;;;;20.20;10.48;;;;;;;;;;4947934;29;20475;-73
2022/04/15 08:13:33;;;;;;;16.77;9.60;;;;;;;;;;4933116;29;20071;-72
2022/04/15 08:15:59;;;;;;;16.52;9.27;;;;;;;;;;4933314;29;20023;-72
2022/04/15 08:18:26;;;;;;;17.58;9.00;;;;;;;;;;4933088;29;20067;-70
2022/04/15 08:20:53;;;;;;;13.38;8.60;;;;;;;;;;4933308;29;20043;-71
2022/04/15 08:23:19;;;;;;;16.77;9.10;;;;;;;;;;4932200;29;20478;-69
2022/04/15 08:25:46;;;;;;;13.23;7.93;;;;;;;;;;4933132;29;20028;-72
2022/04/15 08:28:13;;;;;;;14.32;9.20;;;;;;;;;;4932256;29;20127;-70
2022/04/15 08:30:39;;;;;;;14.50;9.45;;;;;;;;;;4948055;29;20039;-71
2022/04/15 08:33:06;;;;;;;14.48;7.85;;;;;;;;;;4932885;29;20046;-69
2022/04/15 08:35:36;;;;;;;14.73;7.40;;;;;;;;;;4933296;29;20028;-70
2022/04/15 08:38:02;;;;;;;19.80;9.00;;;;;;;;;;4931880;29;20563;-68
2022/04/15 08:40:31;;;;;;;15.50;8.57;;;;;;;;;;4935949;29;20060;-68
2022/04/15 08:42:58;;;;;;;12.30;8.48;;;;;;;;;;4935914;29;20517;-68
2022/04/15 08:45:25;;;;;;;17.67;9.20;;;;;;;;;;4936655;29;20024;-70
2022/04/15 08:48:02;;;;;;;11.75;7.32;;;;;;;;;;4936728;29;20040;-69
2022/04/15 08:50:30;;;;;;;15.40;8.18;;;;;;;;;;4936525;29;20052;-70
2022/04/15 08:52:57;;;;;;;18.00;8.23;;;;;;;;;;4934105;29;20043;-68
2022/04/15 08:55:24;;;;;;;11.23;7.63;;;;;;;;;;4935598;29;20078;-69
2022/04/15 08:57:52;;;;;;;11.77;8.07;;;;;;;;;;4935640;29;20031;-69
2022/04/15 09:00:22;;;;;;;11.05;7.18;;;;;;;;;;4936715;29;20488;-67
2022/04/15 09:02:50;;;;;;;10.95;6.75;;;;;;;;;;4935996;29;20039;-70
2022/04/15 09:05:20;;;;;;;7.75;5.53;;;;;;;;;;4936878;29;20359;-72
2022/04/15 09:07:46;;;;;;;10.20;6.07;;;;;;;;;;4935318;29;20063;-73
2022/04/15 09:10:12;;;;;;;9.05;6.32;;;;;;;;;;4935409;29;20039;-67
2022/04/15 09:12:42;;;;;;;12.93;6.85;;;;;;;;;;4935620;29;20482;-74
2022/04/15 09:15:08;;;;;;;9.07;5.75;;;;;;;;;;4936268;29;20035;-75
2022/04/15 09:17:38;;;;;;;15.73;5.57;;;;;;;;;;4936060;29;20031;-74
2022/04/15 09:20:06;;;;;;;11.27;5.57;;;;;;;;;;4937067;29;20027;-72
2022/04/15 09:22:32;;;;;;;8.40;6.22;;;;;;;;;;4936296;29;20494;-73
2022/04/15 09:24:59;;;;;;;8.00;6.07;;;;;;;;;;4936534;29;20055;-76
2022/04/15 09:27:25;;;;;;;7.68;5.63;;;;;;;;;;4917574;29;20035;-76
2022/04/15 09:29:54;;;;;;;10.85;5.43;;;;;;;;;;4917723;29;20028;-67
2022/04/15 09:32:22;;;;;;;16.23;4.80;;;;;;;;;;4927194;29;20050;-73
2022/04/15 09:35:00;;;;;;;11.30;4.80;;;;;;;;;;4936269;29;20031;-74
2022/04/15 09:37:39;;;;;;;8.65;5.28;;;;;;;;;;4934808;29;20032;-72
2022/04/15 09:40:09;;;;;;;6.57;3.90;;;;;;;;;;4935983;29;20047;-70
2022/04/15 09:42:36;;;;;;;8.90;3.97;;;;;;;;;;4934926;29;20390;-69
2022/04/15 09:45:18;;;;;;;9.52;3.92;;;;;;;;;;4936341;29;20036;-75
2022/04/15 09:48:02;;;;;;;8.93;3.17;;;;;;;;;;4934687;29;20489;-75
2022/04/15 09:50:31;;;;;;;8.55;3.85;;;;;;;;;;4933942;29;20434;-77
2022/04/15 09:53:14;;;;;;;10.27;4.22;;;;;;;;;;4934928;29;20035;-72
2022/04/15 09:55:42;;;;;;;10.45;3.50;;;;;;;;;;4936624;29;20035;-74
2022/04/15 09:58:13;;;;;;;5.60;3.40;;;;;;;;;;4936348;29;20036;-78
2022/04/15 10:00:41;;;;;;;6.30;2.92;;;;;;;;;;4934893;29;20076;-68
2022/04/15 10:03:11;;;;;;;5.20;2.90;;;;;;;;;;4934614;29;20031;-71
2022/04/15 10:05:41;;;;;;;5.07;2.83;;;;;;;;;;4935897;29;20039;-69
2022/04/15 10:08:09;;;;;;;7.88;2.40;;;;;;;;;;4934338;29;20373;-69
2022/04/15 10:10:36;;;;;;;8.30;2.90;;;;;;;;;;4927710;29;20031;-69
2022/04/15 10:13:04;;;;;;;6.07;2.85;;;;;;;;;;4935912;28;20491;-73
2022/04/15 10:15:34;;;;;;;4.95;2.53;;;;;;;;;;4933856;29;20036;-75
2022/04/15 10:18:01;;;;;;;5.53;2.45;;;;;;;;;;4934396;29;20070;-69
2022/04/15 10:20:28;;;;;;;5.32;2.78;;;;;;;;;;4934924;29;20047;-68
2022/04/15 10:22:59;;;;;;;5.70;2.25;;;;;;;;;;4933984;29;20044;-68
2022/04/15 10:25:25;;;;;;;4.53;2.35;;;;;;;;;;4932337;29;20127;-68
2022/04/15 10:27:51;;;;;;;8.75;2.20;;;;;;;;;;4941532;29;20036;-72
2022/04/15 10:30:20;;;;;;;5.28;2.65;;;;;;;;;;4933446;29;20059;-75
2022/04/15 10:32:51;;;;;;;6.13;2.50;;;;;;;;;;4934355;29;20028;-76
2022/04/15 10:35:34;;;;;;;5.45;2.45;;;;;;;;;;4933468;29;20031;-69
2022/04/15 10:38:11;;;;;;;6.90;2.30;;;;;;;;;;4924120;29;20035;-68
2022/04/15 10:40:42;;;;;;;4.82;2.30;;;;;;;;;;4934687;29;20032;-67
2022/04/15 10:43:29;;;;;;;5.15;2.25;;;;;;;;;;4934519;29;20434;-72
2022/04/15 10:46:14;;;;;;;8.27;2.40;;;;;;;;;;4934141;29;20038;-69
2022/04/15 10:48:41;;;;;;;6.05;2.70;;;;;;;;;;4933906;29;20054;-69
2022/04/15 10:51:25;;;;;;;6.45;2.65;;;;;;;;;;4934473;29;20044;-68
2022/04/15 10:53:55;;;;;;;9.13;2.20;;;;;;;;;;4932683;29;20123;-71
2022/04/15 10:56:23;;;;;;;4.80;2.10;;;;;;;;;;4933182;29;20078;-68
2022/04/15 11:02:04;;;;;;;6.43;2.25;;;;;;;;;;4933472;29;20039;-69
2022/04/15 11:04:35;;;;;;;6.95;2.17;;;;;;;;;;4936136;29;20151;-71
2022/04/15 11:07:14;;;;;;;5.30;2.03;;;;;;;;;;4935787;29;20075;-72
2022/04/15 11:09:40;;;;;;;4.88;2.20;;;;;;;;;;4935445;29;20042;-71
2022/04/15 11:12:06;;;;;;;3.08;2.08;;;;;;;;;;4933203;29;20423;-69
2022/04/15 11:14:36;;;;;;;4.30;2.10;;;;;;;;;;4932493;29;20122;-72
2022/04/15 11:17:03;;;;;;;3.70;2.40;;;;;;;;;;4934239;29;20051;-71
2022/04/15 11:19:29;;;;;;;5.38;2.30;;;;;;;;;;4932760;29;20019;-75
2022/04/15 11:21:55;;;;;;;8.02;3.95;;;;;;;;;;4931967;29;20093;-73
2022/04/15 11:24:33;;;;;;;7.22;3.20;;;;;;;;;;4933825;29;20423;-75
2022/04/15 11:27:03;;;;;;;6.35;2.40;;;;;;;;;;4932210;29;20478;-73
2022/04/15 11:29:31;;;;;;;8.60;2.70;;;;;;;;;;4934430;29;20123;-78
2022/04/15 11:32:07;;;;;;;20.85;3.55;;;;;;;;;;4934611;29;20070;-75
2022/04/15 11:34:34;;;;;;;34.58;4.35;;;;;;;;;;4934818;29;20039;-75
2022/04/15 11:37:06;;;;;;;10.75;2.85;;;;;;;;;;4934162;29;20028;-72
2022/04/15 11:39:35;;;;;;;6.10;2.45;;;;;;;;;;4919810;29;20035;-71
2022/04/15 11:42:08;;;;;;;6.75;2.38;;;;;;;;;;4934256;29;20498;-67
2022/04/15 11:44:34;;;;;;;3.53;2.08;;;;;;;;;;4933039;29;20036;-70
2022/04/15 11:47:16;;;;;;;5.75;2.58;;;;;;;;;;4934302;29;20086;-68
2022/04/15 11:49:42;;;;;;;7.25;2.40;;;;;;;;;;4933805;29;20032;-70
2022/04/15 11:52:09;;;;;;;4.68;2.15;;;;;;;;;;4934605;29;20040;-74
2022/04/15 11:54:39;;;;;;;5.38;2.53;;;;;;;;;;4934023;29;20043;-70
2022/04/15 11:57:06;;;;;;;3.85;2.30;;;;;;;;;;4934275;29;20042;-69
2022/04/15 11:59:40;;;;;;;9.63;4.07;;;;;;;;;;4933999;29;20068;-67
2022/04/15 12:02:07;;;;;;;5.30;2.83;;;;;;;;;;4933460;29;20048;-67
2022/04/15 12:04:33;;;;;;;5.65;2.40;;;;;;;;;;4933781;29;20492;-71
2022/04/15 12:06:59;;;;;;;7.75;3.28;;;;;;;;;;4934012;29;20059;-67
2022/04/15 12:09:26;;;;;;;6.35;2.78;;;;;;;;;;4934526;29;20111;-67
2022/04/15 12:11:52;;;;;;;4.13;2.20;;;;;;;;;;4933429;29;20087;-71
2022/04/15 12:14:19;;;;;;;4.57;2.28;;;;;;;;;;4931863;29;20039;-68
2022/04/15 12:16:47;;;;;;;5.15;2.80;;;;;;;;;;4934210;29;20507;-67
2022/04/15 12:19:14;;;;;;;8.57;2.83;;;;;;;;;;4933265;29;20378;-69
2022/04/15 12:21:42;;;;;;;6.90;4.30;;;;;;;;;;4934853;29;20032;-69
2022/04/15 12:24:19;;;;;;;6.38;2.78;;;;;;;;;;4934642;29;20111;-67
2022/04/15 12:30:37;;;;;;;7.10;3.00;;;;;;;;;;4934742;29;20078;-68
2022/04/15 12:33:13;;;;;;;5.97;2.80;;;;;;;;;;4934173;29;20063;-69
2022/04/15 12:35:56;;;;;;;4.30;2.53;;;;;;;;;;4933802;29;20028;-67
2022/04/15 12:38:22;;;;;;;3.50;2.13;;;;;;;;;;4933541;29;20036;-67
2022/04/15 12:40:48;;;;;;;4.80;2.40;;;;;;;;;;4933674;29;20135;-69
2022/04/15 12:43:14;;;;;;;6.43;2.47;;;;;;;;;;4933514;29;20035;-67
2022/04/15 12:45:53;;;;;;;5.95;3.63;;;;;;;;;;4931955;29;20030;-68
2022/04/15 12:48:20;;;;;;;4.68;2.25;;;;;;;;;;4932718;29;20372;-67
2022/04/15 12:50:58;;;;;;;5.60;2.50;;;;;;;;;;4934051;29;20074;-70
2022/04/15 12:53:25;;;;;;;3.97;2.25;;;;;;;;;;4932931;29;20044;-68
2022/04/15 12:55:52;;;;;;;6.72;2.10;;;;;;;;;;4934383;29;20053;-66
2022/04/15 12:58:23;;;;;;;6.55;2.92;;;;;;;;;;4933884;29;20036;-67
2022/04/15 13:00:51;;;;;;;9.30;2.83;;;;;;;;;;4933896;29;20035;-67
2022/04/15 13:03:21;;;;;;;6.05;2.78;;;;;;;;;;4933431;29;20023;-71
2022/04/15 13:05:48;;;;;;;4.32;2.17;;;;;;;;;;4934169;29;20126;-69
2022/04/15 13:08:19;;;;;;;6.95;3.05;;;;;;;;;;4932740;29;20368;-70
2022/04/15 13:10:45;;;;;;;7.60;2.58;;;;;;;;;;4933505;29;20047;-76
2022/04/15 13:13:11;;;;;;;8.95;3.10;;;;;;;;;;4932883;29;20548;-71
2022/04/15 13:15:37;;;;;;;6.75;2.90;;;;;;;;;;4932274;29;20039;-68
2022/04/15 13:18:04;;;;;;;3.88;2.50;;;;;;;;;;4934232;29;20031;-74
2022/04/15 13:20:30;;;;;;;5.20;2.35;;;;;;;;;;4933922;29;20482;-74
2022/04/15 13:22:57;;;;;;;10.55;2.42;;;;;;;;;;4931010;29;20483;-70
2022/04/15 13:25:23;;;;;;;7.40;3.03;;;;;;;;;;4932594;29;20111;-68
2022/04/15 13:27:49;;;;;;;4.80;2.42;;;;;;;;;;4936441;29;20152;-68
2022/04/15 13:30:15;;;;;;;5.78;2.70;;;;;;;;;;4936065;29;20501;-68
2022/04/15 13:32:41;;;;;;;6.53;2.63;;;;;;;;;;4936368;29;20028;-70
2022/04/15 13:35:07;;;;;;;4.68;2.40;;;;;;;;;;4935788;29;20047;-68
2022/04/15 13:37:34;;;;;;;5.15;2.30;;;;;;;;;;4935997;29;20027;-71
2022/04/15 13:40:01;;;;;;;4.50;2.33;;;;;;;;;;4935619;29;20044;-70
2022/04/15 13:42:28;;;;;;;6.45;2.33;;;;;;;;;;4936172;29;20375;-72
2022/04/15 13:44:55;;;;;;;7.15;2.40;;;;;;;;;;4935829;29;20031;-74
2022/04/15 13:47:21;;;;;;;7.03;2.40;;;;;;;;;;4935148;29;20027;-69
2022/04/15 13:49:49;;;;;;;5.18;2.63;;;;;;;;;;4936087;29;20087;-69
2022/04/15 13:57:45;;;;;;;10.18;3.10;;;;;;;;;;4935904;29;20143;-68
2022/04/15 14:00:11;;;;;;;5.53;2.40;;;;;;;;;;4934746;29;20547;-68
2022/04/15 14:02:37;;;;;;;5.18;2.20;;;;;;;;;;4936914;29;20039;-75
2022/04/15 14:05:03;;;;;;;4.57;2.20;;;;;;;;;;4935483;29;20051;-70
2022/04/15 14:07:30;;;;;;;10.68;2.78;;;;;;;;;;4923396;29;20040;-72
2022/04/15 14:09:56;;;;;;;4.47;2.42;;;;;;;;;;4932739;29;20126;-71
2022/04/15 14:12:22;;;;;;;8.40;2.35;;;;;;;;;;4934021;29;20027;-71
2022/04/15 14:14:47;;;;;;;7.63;2.80;;;;;;;;;;4934804;29;20481;-70
2022/04/15 14:17:13;;;;;;;7.45;2.45;;;;;;;;;;4934782;29;20122;-69
2022/04/15 14:19:39;;;;;;;6.10;2.30;;;;;;;;;;4936184;29;20059;-68
2022/04/15 14:22:05;;;;;;;9.10;2.50;;;;;;;;;;4934127;29;20071;-70
2022/04/15 14:24:33;;;;;;;6.25;2.75;;;;;;;;;;4936205;29;20035;-71
2022/04/15 14:27:00;;;;;;;8.50;2.80;;;;;;;;;;4935151;29;20059;-68
2022/04/15 14:29:26;;;;;;;6.63;2.38;;;;;;;;;;4935436;29;20051;-72
2022/04/15 14:31:52;;;;;;;8.48;2.80;;;;;;;;;;4935017;29;20115;-68
2022/04/15 14:34:20;;;;;;;7.38;2.90;;;;;;;;;;4934823;29;20404;-68
2022/04/15 14:36:46;;;;;;;4.05;2.72;;;;;;;;;;4934228;29;20112;-69
2022/04/15 14:39:12;;;;;;;9.55;2.88;;;;;;;;;;4934885;29;20390;-72
2022/04/15 14:41:38;;;;;;;6.22;2.38;;;;;;;;;;4934309;29;20040;-71
2022/04/15 14:44:04;;;;;;;9.98;2.95;;;;;;;;;;4935163;29;20457;-75
2022/04/15 14:46:30;;;;;;;6.50;2.75;;;;;;;;;;4934044;29;20036;-76
2022/04/15 14:48:56;;;;;;;13.20;2.50;;;;;;;;;;4934329;29;20339;-71